createdAt,value
2023-03-16T00:00:17.009Z,54.466667
2023-03-16T00:05:19.634Z,52.200000
2023-03-16T00:10:21.679Z,51.533333
2023-03-16T00:15:24.614Z,52.214286
2023-03-16T00:20:28.206Z,53.866667
2023-03-16T00:25:30.078Z,54.133333
2023-03-16T00:30:44.313Z,54.200000
2023-03-16T00:35:35.007Z,56.066667
2023-03-16T00:40:16.589Z,57.533333
2023-03-16T00:45:18.777Z,57.466667
2023-03-16T00:50:20.599Z,56.533333
2023-03-16T00:55:22.641Z,56.785714
2023-03-16T01:00:25.789Z,58.466667
2023-03-16T01:05:27.399Z,60.466667
2023-03-16T01:10:29.955Z,61.133333
2023-03-16T01:15:32.195Z,62.800000
2023-03-16T01:20:34.905Z,63.666667
2023-03-16T01:25:16.585Z,63.400000
2023-03-16T01:30:18.906Z,63.466667
2023-03-16T01:35:22.039Z,63.666667
2023-03-16T01:40:23.884Z,64.142857
2023-03-16T01:45:26.077Z,66.266667
2023-03-16T01:50:28.628Z,67.066667
2023-03-16T01:55:30.209Z,68.000000
2023-03-16T02:00:32.796Z,68.200000
2023-03-16T02:05:34.938Z,68.800000
2023-03-16T02:10:17.032Z,71.000000
2023-03-16T02:15:20.160Z,72.466667
2023-03-16T02:20:22.826Z,73.714286
2023-03-16T02:25:26.038Z,75.200000
2023-03-16T02:30:30.168Z,74.133333
2023-03-16T02:35:31.527Z,72.733333
2023-03-16T02:40:34.311Z,72.466667
2023-03-16T02:45:16.684Z,73.266667
2023-03-16T02:50:19.246Z,73.000000
2023-03-16T02:55:21.441Z,73.933333
2023-03-16T03:00:24.408Z,73.000000
2023-03-16T03:05:27.134Z,74.333333
2023-03-16T03:10:30.151Z,75.266667
2023-03-16T03:15:33.127Z,75.333333
2023-03-16T03:20:35.800Z,70.600000
2023-03-16T03:25:18.705Z,68.933333
2023-03-16T03:30:20.911Z,69.400000
2023-03-16T03:35:23.391Z,69.857143
2023-03-16T03:40:27.581Z,72.533333
2023-03-16T03:45:28.653Z,73.466667
2023-03-16T03:50:32.330Z,74.866667
2023-03-16T03:55:35.759Z,76.733333
2023-03-16T04:00:17.914Z,77.466667
2023-03-16T04:05:20.710Z,77.333333
2023-03-16T04:10:23.055Z,77.000000
2023-03-16T04:15:25.640Z,76.533333
2023-03-16T04:20:29.980Z,76.000000
2023-03-16T04:25:31.346Z,76.266667
2023-03-16T04:30:34.597Z,75.600000
2023-03-16T04:35:17.139Z,74.266667
2023-03-16T04:40:19.626Z,75.000000
2023-03-16T04:45:22.801Z,75.000000
2023-03-16T04:50:26.053Z,74.733333
2023-03-16T04:55:28.291Z,75.000000
2023-03-16T05:00:31.112Z,75.000000
2023-03-16T05:05:33.637Z,76.266667
2023-03-16T05:10:35.954Z,77.066667
2023-03-16T05:15:18.262Z,77.533333
2023-03-16T05:20:20.593Z,75.800000
2023-03-16T05:25:23.743Z,76.000000
2023-03-16T05:30:27.446Z,76.000000
2023-03-16T05:35:29.630Z,76.000000
2023-03-16T05:40:31.972Z,76.000000
2023-03-16T05:45:35.274Z,76.933333
2023-03-16T05:50:17.748Z,77.200000
2023-03-16T05:55:20.482Z,78.333333
2023-03-16T06:00:22.871Z,79.642857
2023-03-16T06:05:25.660Z,80.600000
2023-03-16T06:10:28.367Z,81.000000
2023-03-16T06:15:30.860Z,81.000000
2023-03-16T06:20:33.403Z,79.933333
2023-03-16T06:25:16.132Z,79.000000
2023-03-16T06:30:18.882Z,79.400000
2023-03-16T06:35:21.548Z,80.000000
2023-03-16T06:40:24.573Z,80.000000
2023-03-16T06:45:27.417Z,80.000000
2023-03-16T06:50:30.454Z,80.000000
2023-03-16T06:55:34.031Z,79.333333
2023-03-16T07:00:16.495Z,79.000000
2023-03-16T07:05:19.359Z,79.666667
2023-03-16T07:10:22.083Z,81.000000
2023-03-16T07:15:25.350Z,81.642857
2023-03-16T07:20:28.807Z,81.200000
2023-03-16T07:25:31.003Z,80.266667
2023-03-16T07:30:33.667Z,79.000000
2023-03-16T07:35:16.122Z,79.000000
2023-03-16T07:40:18.879Z,79.000000
2023-03-16T07:45:22.541Z,79.000000
2023-03-16T07:50:25.725Z,79.000000
2023-03-16T07:55:28.722Z,79.000000
2023-03-16T08:00:31.711Z,78.200000
2023-03-16T08:05:34.405Z,78.533333
2023-03-16T08:10:16.812Z,79.000000
2023-03-16T08:15:19.169Z,78.200000
2023-03-16T08:20:22.032Z,78.533333
2023-03-16T08:25:24.700Z,78.571429
2023-03-16T08:30:28.094Z,79.000000
2023-03-16T08:35:30.940Z,79.333333
2023-03-16T08:40:34.109Z,80.133333
2023-03-16T08:45:16.587Z,81.000000
2023-03-16T08:50:19.053Z,81.000000
2023-03-16T08:55:21.772Z,81.000000
2023-03-16T09:00:25.465Z,81.357143
2023-03-16T09:05:28.344Z,82.000000
2023-03-16T09:10:31.188Z,82.133333
2023-03-16T09:15:33.499Z,82.400000
2023-03-16T09:20:35.996Z,82.933333
2023-03-16T09:25:17.725Z,82.866667
2023-03-16T09:30:20.025Z,81.600000
2023-03-16T09:35:22.687Z,80.428571
2023-03-16T09:40:25.275Z,79.666667
2023-03-16T09:45:27.979Z,79.000000
2023-03-16T09:50:35.193Z,79.866667
2023-03-16T09:55:32.076Z,80.200000
2023-03-16T10:00:34.240Z,80.800000
2023-03-16T10:05:16.600Z,80.000000
2023-03-16T10:10:19.287Z,79.733333
2023-03-16T10:15:21.239Z,79.733333
2023-03-16T10:20:23.546Z,79.785714
2023-03-16T10:25:26.053Z,78.200000
2023-03-16T10:30:28.584Z,78.666667
2023-03-16T10:35:30.861Z,79.333333
2023-03-16T10:40:32.667Z,80.000000
2023-03-16T10:45:35.606Z,80.000000
2023-03-16T10:50:17.681Z,79.400000
2023-03-16T10:55:19.742Z,78.933333
2023-03-16T11:00:22.268Z,76.666667
2023-03-16T11:05:24.372Z,77.000000
2023-03-16T11:10:26.806Z,76.200000
2023-03-16T11:15:28.943Z,75.800000
2023-03-16T11:20:31.548Z,75.533333
2023-03-16T11:25:33.604Z,75.800000
2023-03-16T11:30:16.008Z,74.133333
2023-03-16T11:35:18.914Z,73.533333
2023-03-16T11:40:21.037Z,74.733333
2023-03-16T11:45:23.298Z,75.071429
2023-03-16T11:50:25.547Z,75.133333
2023-03-16T11:55:28.111Z,75.733333
2023-03-16T12:00:30.354Z,75.600000
2023-03-16T12:05:33.001Z,76.000000
2023-03-16T12:10:35.566Z,76.800000
2023-03-16T12:15:17.535Z,76.200000
2023-03-16T12:20:20.060Z,77.200000
2023-03-16T12:25:22.768Z,78.000000
2023-03-16T12:30:25.334Z,78.066667
2023-03-16T12:35:28.197Z,79.066667
2023-03-16T12:40:30.438Z,80.000000
2023-03-16T12:45:32.913Z,80.000000
2023-03-16T12:50:35.652Z,80.000000
2023-03-16T12:55:17.601Z,79.733333
2023-03-16T13:00:19.752Z,78.200000
2023-03-16T13:05:21.955Z,77.733333
2023-03-16T13:10:24.246Z,77.785714
2023-03-16T13:15:26.622Z,78.133333
2023-03-16T13:20:31.110Z,79.000000
2023-03-16T13:25:31.726Z,78.866667
2023-03-16T13:30:34.205Z,79.400000
2023-03-16T13:35:39.108Z,80.533333
2023-03-16T13:40:18.135Z,81.466667
2023-03-16T13:45:20.601Z,81.800000
2023-03-16T13:50:22.959Z,80.928571
2023-03-16T13:55:25.630Z,75.333333
2023-03-16T14:00:28.255Z,73.333333
2023-03-16T14:05:30.934Z,74.600000
2023-03-16T14:10:32.618Z,75.000000
2023-03-16T14:15:34.786Z,75.000000
2023-03-16T14:20:16.826Z,74.800000
2023-03-16T14:25:19.270Z,74.000000
2023-03-16T14:30:21.885Z,73.466667
2023-03-16T14:35:24.507Z,72.000000
2023-03-16T14:40:26.506Z,72.600000
2023-03-16T14:45:29.045Z,72.733333
2023-03-16T14:50:30.888Z,71.133333
2023-03-16T14:55:33.598Z,72.200000
2023-03-16T15:00:15.948Z,71.733333
2023-03-16T15:05:18.152Z,69.800000
2023-03-16T15:10:20.263Z,70.800000
2023-03-16T15:15:22.659Z,69.000000
2023-03-16T15:20:25.236Z,68.600000
2023-03-16T15:25:27.538Z,67.933333
2023-03-16T15:30:30.422Z,67.400000
2023-03-16T15:35:32.988Z,66.066667
2023-03-16T15:40:35.420Z,65.266667
2023-03-16T15:45:17.464Z,63.866667
2023-03-16T15:50:19.870Z,63.200000
2023-03-16T15:55:22.668Z,63.928571
2023-03-16T16:00:25.093Z,63.200000
2023-03-16T16:05:27.443Z,62.333333
2023-03-16T16:10:30.190Z,60.933333
2023-03-16T16:15:32.395Z,61.266667
2023-03-16T16:20:34.684Z,61.666667
2023-03-16T16:25:16.527Z,61.600000
2023-03-16T16:30:19.282Z,62.200000
2023-03-16T16:35:21.314Z,63.066667
2023-03-16T16:40:23.792Z,60.214286
2023-03-16T16:45:26.397Z,60.066667
2023-03-16T16:50:28.596Z,57.866667
2023-03-16T16:55:31.339Z,55.400000
2023-03-16T17:00:33.452Z,53.600000
2023-03-16T17:05:36.391Z,53.933333
2023-03-16T17:10:17.927Z,54.466667
2023-03-16T17:15:20.474Z,54.600000
2023-03-16T17:20:23.065Z,54.285714
2023-03-16T17:25:25.580Z,53.066667
2023-03-16T17:30:28.126Z,53.600000
2023-03-16T17:35:30.794Z,52.400000
2023-03-16T17:40:32.878Z,54.733333
2023-03-16T17:45:35.232Z,54.200000
2023-03-16T17:50:17.494Z,55.800000
2023-03-16T17:55:19.841Z,55.200000
2023-03-16T18:00:22.252Z,55.866667
2023-03-16T18:05:24.775Z,51.571429
2023-03-16T18:10:27.594Z,48.000000
2023-03-16T18:15:29.195Z,52.066667
2023-03-16T18:20:31.903Z,47.666667
2023-03-16T18:25:34.024Z,51.400000
2023-03-16T18:30:16.252Z,51.466667
2023-03-16T18:35:18.693Z,50.666667
2023-03-16T18:40:21.040Z,50.733333
2023-03-16T18:45:22.958Z,53.000000
2023-03-16T18:50:25.273Z,51.533333
2023-03-16T18:55:27.846Z,53.533333
2023-03-16T19:00:29.781Z,53.400000
2023-03-16T19:05:32.233Z,56.066667
2023-03-16T19:10:34.476Z,54.866667
2023-03-16T19:15:16.692Z,56.333333
2023-03-16T19:20:18.768Z,55.000000
2023-03-16T19:25:21.109Z,55.200000
2023-03-16T19:30:24.101Z,54.500000
2023-03-16T19:35:40.119Z,55.266667
2023-03-16T19:40:28.542Z,53.933333
2023-03-16T19:45:31.541Z,53.200000
2023-03-16T19:50:33.432Z,53.533333
2023-03-16T19:55:36.212Z,51.333333
2023-03-16T20:00:18.052Z,51.600000
2023-03-16T20:05:21.059Z,50.600000
2023-03-16T20:10:23.345Z,50.785714
2023-03-16T20:15:25.840Z,50.866667
2023-03-16T20:20:27.824Z,50.200000
2023-03-16T20:25:30.354Z,51.733333
2023-03-16T20:30:31.677Z,50.533333
2023-03-16T20:35:33.869Z,50.066667
2023-03-16T20:40:16.053Z,50.733333
2023-03-16T20:45:18.772Z,51.000000
2023-03-16T20:50:20.866Z,50.400000
2023-03-16T20:55:22.973Z,50.500000
2023-03-16T21:00:25.467Z,50.400000
2023-03-16T21:05:28.310Z,48.866667
2023-03-16T21:10:30.289Z,49.733333
2023-03-16T21:15:32.598Z,49.666667
2023-03-16T21:20:34.796Z,48.600000
2023-03-16T21:25:17.239Z,49.666667
2023-03-16T21:30:19.955Z,49.200000
2023-03-16T21:35:21.974Z,49.533333
2023-03-16T21:40:24.465Z,50.714286
2023-03-16T21:45:27.744Z,46.733333
2023-03-16T21:50:30.500Z,46.933333
2023-03-16T21:55:33.177Z,48.733333
2023-03-16T22:00:35.531Z,47.266667
2023-03-16T22:05:18.033Z,47.666667
2023-03-16T22:10:20.773Z,47.666667
2023-03-16T22:15:23.337Z,46.428571
2023-03-16T22:20:25.817Z,45.533333
2023-03-16T22:25:28.438Z,47.066667
2023-03-16T22:30:31.255Z,47.000000
2023-03-16T22:35:33.948Z,47.600000
2023-03-16T22:40:16.343Z,48.000000
2023-03-16T22:45:19.589Z,46.666667
2023-03-16T22:50:22.560Z,46.142857
2023-03-16T22:55:25.449Z,47.266667
2023-03-16T23:00:27.840Z,48.000000
2023-03-16T23:05:30.995Z,46.466667
2023-03-16T23:10:33.075Z,46.266667
2023-03-16T23:15:35.937Z,47.866667
2023-03-16T23:20:18.624Z,47.800000
2023-03-16T23:25:21.366Z,46.600000
2023-03-16T23:30:24.233Z,46.571429
2023-03-16T23:35:26.870Z,46.066667
2023-03-16T23:40:30.173Z,44.866667
2023-03-16T23:45:32.185Z,45.000000
2023-03-16T23:50:34.338Z,46.000000
2023-03-16T23:55:16.254Z,46.666667
